createdAt,value
2023-05-09T00:01:24.639Z,38.08
2023-05-09T00:03:52.541Z,37.05
2023-05-09T00:06:20.519Z,39.65
2023-05-09T00:08:48.531Z,37.05
2023-05-09T00:11:16.070Z,37.65
2023-05-09T00:13:44.253Z,37.33
2023-05-09T00:16:12.081Z,37.00
2023-05-09T00:18:42.259Z,37.58
2023-05-09T00:21:11.129Z,37.90
2023-05-09T00:23:39.484Z,39.60
2023-05-09T00:26:07.008Z,36.40
2023-05-09T00:28:34.584Z,37.63
2023-05-09T00:31:02.119Z,35.92
2023-05-09T00:33:29.714Z,36.38
2023-05-09T00:35:57.316Z,37.47
2023-05-09T00:38:24.963Z,40.28
2023-05-09T00:40:52.663Z,37.72
2023-05-09T00:43:20.133Z,38.15
2023-05-09T00:45:47.737Z,37.00
2023-05-09T00:48:16.476Z,38.45
2023-05-09T00:50:44.051Z,39.50
2023-05-09T00:53:11.556Z,37.03
2023-05-09T00:55:39.108Z,38.35
2023-05-09T00:58:06.681Z,35.60
2023-05-09T01:00:34.152Z,39.42
2023-05-09T01:03:01.711Z,35.72
2023-05-09T01:05:39.155Z,35.70
2023-05-09T01:08:32.545Z,36.72
2023-05-09T01:11:11.601Z,36.78
2023-05-09T01:13:53.457Z,34.28
2023-05-09T01:16:27.969Z,36.75
2023-05-09T01:19:01.432Z,35.05
2023-05-09T01:21:32.358Z,35.95
2023-05-09T01:24:05.679Z,35.30
2023-05-09T01:27:03.417Z,34.10
2023-05-09T01:29:36.774Z,35.95
2023-05-09T01:32:09.557Z,34.40
2023-05-09T01:34:40.839Z,33.70
2023-05-09T01:37:09.363Z,34.90
2023-05-09T01:39:41.267Z,30.38
2023-05-09T01:42:12.592Z,33.00
2023-05-09T01:44:43.570Z,32.10
2023-05-09T01:47:12.777Z,31.15
2023-05-09T01:49:42.413Z,29.67
2023-05-09T01:52:13.683Z,29.08
2023-05-09T01:54:41.545Z,32.10
2023-05-09T01:57:11.373Z,27.35
2023-05-09T01:59:42.426Z,27.80
2023-05-09T02:02:10.729Z,29.10
2023-05-09T02:04:39.822Z,28.73
2023-05-09T02:07:09.169Z,28.10
2023-05-09T02:09:36.874Z,29.40
2023-05-09T02:12:05.185Z,29.23
2023-05-09T02:14:32.888Z,30.20
2023-05-09T02:17:06.176Z,26.48
2023-05-09T02:19:37.374Z,29.13
2023-05-09T02:22:05.721Z,30.02
2023-05-09T02:24:35.104Z,29.42
2023-05-09T02:27:05.249Z,31.38
2023-05-09T02:29:43.652Z,30.70
2023-05-09T02:32:17.927Z,30.27
2023-05-09T02:34:47.566Z,31.23
2023-05-09T02:37:16.366Z,32.88
2023-05-09T02:39:44.036Z,30.58
2023-05-09T02:42:13.085Z,31.02
2023-05-09T02:44:40.896Z,33.53
2023-05-09T02:47:08.537Z,31.83
2023-05-09T02:49:36.078Z,30.88
2023-05-09T02:52:03.821Z,31.52
2023-05-09T02:54:31.285Z,29.70
2023-05-09T02:56:59.221Z,29.30
2023-05-09T02:59:27.090Z,31.17
2023-05-09T03:01:54.646Z,31.65
2023-05-09T03:04:22.280Z,32.47
2023-05-09T03:06:49.862Z,32.72
2023-05-09T03:09:17.483Z,31.42
2023-05-09T03:11:45.160Z,32.25
2023-05-09T03:14:14.828Z,31.65
2023-05-09T03:16:42.520Z,30.50
2023-05-09T03:19:10.048Z,27.60
2023-05-09T03:21:37.558Z,27.95
2023-05-09T03:24:05.300Z,26.67
2023-05-09T03:26:32.793Z,28.08
2023-05-09T03:29:00.292Z,27.80
2023-05-09T03:31:28.017Z,26.75
2023-05-09T03:33:55.664Z,25.00
2023-05-09T03:36:23.316Z,22.75
2023-05-09T03:38:50.891Z,25.65
2023-05-09T03:41:18.995Z,24.85
2023-05-09T03:43:46.665Z,24.42
2023-05-09T03:46:14.517Z,22.60
2023-05-09T03:48:42.040Z,23.88
2023-05-09T03:51:09.629Z,23.92
2023-05-09T03:53:37.178Z,23.52
2023-05-09T03:56:04.893Z,24.00
2023-05-09T03:58:32.390Z,23.58
2023-05-09T04:00:59.874Z,23.67
2023-05-09T04:03:27.943Z,24.35
2023-05-09T04:05:55.891Z,22.83
2023-05-09T04:08:23.897Z,23.65
2023-05-09T04:10:52.427Z,24.13
2023-05-09T04:13:19.979Z,23.98
2023-05-09T04:15:47.533Z,25.23
2023-05-09T04:18:15.087Z,25.73
2023-05-09T04:20:42.568Z,25.85
2023-05-09T04:23:10.035Z,24.58
2023-05-09T04:25:37.593Z,27.92
2023-05-09T04:28:05.794Z,26.75
2023-05-09T04:30:33.507Z,24.38
2023-05-09T04:33:01.126Z,26.10
2023-05-09T04:35:28.680Z,25.10
2023-05-09T04:37:56.409Z,24.70
2023-05-09T04:40:26.636Z,26.23
2023-05-09T04:42:54.565Z,25.55
2023-05-09T04:45:22.083Z,27.23
2023-05-09T04:47:49.632Z,25.75
2023-05-09T04:50:17.580Z,24.92
2023-05-09T04:52:45.075Z,23.67
2023-05-09T04:55:12.816Z,23.33
2023-05-09T04:57:40.510Z,23.17
2023-05-09T05:00:11.305Z,22.20
2023-05-09T05:02:39.012Z,24.75
2023-05-09T05:05:11.944Z,24.65
2023-05-09T05:07:40.508Z,21.50
2023-05-09T05:10:08.620Z,22.77
2023-05-09T05:12:36.239Z,22.30
2023-05-09T05:15:03.830Z,20.73
2023-05-09T05:17:31.561Z,18.30
2023-05-09T05:19:59.184Z,19.33
2023-05-09T05:22:26.681Z,18.20
2023-05-09T05:24:54.321Z,19.42
2023-05-09T05:27:21.824Z,18.58
2023-05-09T05:29:49.438Z,20.10
2023-05-09T05:32:16.927Z,17.33
2023-05-09T05:34:44.552Z,15.90
2023-05-09T05:37:12.144Z,16.25
2023-05-09T05:39:39.706Z,18.38
2023-05-09T05:42:07.308Z,14.82
2023-05-09T05:44:34.879Z,15.98
2023-05-09T05:47:02.405Z,17.33
2023-05-09T05:49:29.920Z,15.90
2023-05-09T05:51:57.449Z,14.98
2023-05-09T05:54:25.119Z,15.20
2023-05-09T05:56:52.724Z,16.10
2023-05-09T05:59:20.277Z,15.10
2023-05-09T06:01:48.063Z,14.48
2023-05-09T06:04:15.860Z,16.15
2023-05-09T06:06:43.836Z,16.13
2023-05-09T06:09:11.492Z,14.07
2023-05-09T06:11:39.255Z,14.45
2023-05-09T06:14:06.944Z,14.35
2023-05-09T06:16:34.742Z,14.35
2023-05-09T06:19:02.358Z,15.40
2023-05-09T06:21:30.271Z,15.95
2023-05-09T06:24:09.848Z,16.35
2023-05-09T06:26:40.111Z,15.05
2023-05-09T06:29:07.918Z,15.57
2023-05-09T06:31:38.672Z,16.38
2023-05-09T06:34:06.776Z,15.52
2023-05-09T06:36:34.873Z,17.38
2023-05-09T06:39:03.039Z,15.93
2023-05-09T06:41:30.718Z,14.75
2023-05-09T06:43:58.292Z,16.65
2023-05-09T06:46:25.893Z,18.05
2023-05-09T06:48:53.499Z,15.93
2023-05-09T06:51:21.129Z,15.05
2023-05-09T06:53:48.703Z,18.05
2023-05-09T06:56:18.383Z,19.13
2023-05-09T06:58:47.502Z,16.52
2023-05-09T07:01:15.254Z,14.57
2023-05-09T07:03:42.794Z,17.45
2023-05-09T07:06:10.630Z,20.02
2023-05-09T07:08:38.184Z,19.38
2023-05-09T07:11:06.075Z,16.05
2023-05-09T07:13:33.842Z,16.92
2023-05-09T07:16:01.418Z,17.27
2023-05-09T07:18:29.809Z,16.98
2023-05-09T07:20:57.478Z,16.13
2023-05-09T07:23:26.036Z,16.55
2023-05-09T07:26:00.148Z,17.80
2023-05-09T07:28:28.180Z,16.75
2023-05-09T07:30:58.850Z,16.67
2023-05-09T07:33:26.520Z,15.35
2023-05-09T07:35:54.054Z,15.20
2023-05-09T07:38:21.680Z,15.95
2023-05-09T07:40:49.284Z,15.95
2023-05-09T07:43:16.832Z,14.35
2023-05-09T07:45:44.956Z,14.52
2023-05-09T07:48:12.611Z,13.40
2023-05-09T07:50:41.117Z,14.90
2023-05-09T07:53:08.674Z,14.73
2023-05-09T07:55:36.663Z,15.25
2023-05-09T07:58:04.200Z,16.77
2023-05-09T08:00:31.695Z,19.33
2023-05-09T08:02:59.672Z,17.80
2023-05-09T08:05:27.998Z,16.60
2023-05-09T08:07:55.533Z,17.15
2023-05-09T08:10:23.519Z,15.57
2023-05-09T08:12:51.420Z,16.42
2023-05-09T08:15:19.333Z,14.98
2023-05-09T08:17:46.932Z,14.70
2023-05-09T08:20:14.787Z,16.10
2023-05-09T08:22:42.408Z,13.32
2023-05-09T08:25:10.432Z,13.45
2023-05-09T08:27:37.956Z,11.85
2023-05-09T08:30:06.495Z,10.35
2023-05-09T08:32:34.089Z,11.52
2023-05-09T08:35:01.593Z,10.70
2023-05-09T08:37:29.337Z,10.82
2023-05-09T08:39:57.000Z,9.80
2023-05-09T08:42:26.649Z,9.98
2023-05-09T08:44:54.277Z,9.07
2023-05-09T08:47:23.764Z,8.98
2023-05-09T08:49:52.591Z,10.63
2023-05-09T08:52:21.177Z,9.40
2023-05-09T08:54:48.954Z,9.98
2023-05-09T08:57:16.736Z,9.75
2023-05-09T08:59:46.571Z,9.88
2023-05-09T09:02:15.933Z,9.45
2023-05-09T09:04:45.077Z,9.20
2023-05-09T09:07:14.948Z,10.65
2023-05-09T09:09:47.746Z,10.55
2023-05-09T09:12:17.493Z,9.98
2023-05-09T09:14:53.686Z,10.70
2023-05-09T09:17:24.423Z,10.57
2023-05-09T09:19:57.268Z,11.20
2023-05-09T09:22:25.998Z,10.05
2023-05-09T09:24:53.671Z,9.18
2023-05-09T09:27:21.589Z,9.23
2023-05-09T09:29:49.114Z,9.48
2023-05-09T09:32:18.516Z,9.73
2023-05-09T09:34:50.905Z,9.68
2023-05-09T09:37:24.839Z,10.02
2023-05-09T09:39:56.444Z,9.07
2023-05-09T09:42:24.108Z,9.10
2023-05-09T09:45:12.245Z,8.10
2023-05-09T09:47:39.900Z,6.97
2023-05-09T09:50:16.111Z,7.65
2023-05-09T09:52:55.877Z,9.57
2023-05-09T09:55:25.525Z,8.00
2023-05-09T09:57:53.779Z,7.38
2023-05-09T10:00:27.310Z,6.00
2023-05-09T10:03:00.071Z,8.20
2023-05-09T10:05:28.914Z,7.95
2023-05-09T10:08:04.684Z,7.20
2023-05-09T10:10:36.938Z,7.97
2023-05-09T10:15:45.148Z,7.13
2023-05-09T10:18:26.423Z,6.97
2023-05-09T10:20:55.017Z,7.70
2023-05-09T10:23:24.455Z,6.85
2023-05-09T10:26:19.541Z,6.75
2023-05-09T10:28:49.761Z,6.13
2023-05-09T10:31:26.171Z,6.85
2023-05-09T10:33:55.869Z,5.88
2023-05-09T10:36:24.905Z,6.45
2023-05-09T10:38:55.138Z,6.78
2023-05-09T10:41:24.003Z,5.60
2023-05-09T10:43:52.069Z,6.45
2023-05-09T10:46:20.169Z,6.07
2023-05-09T10:48:49.211Z,6.60
2023-05-09T10:51:17.603Z,7.60
2023-05-09T10:53:45.918Z,7.10
2023-05-09T10:56:39.870Z,7.50
2023-05-09T10:59:07.428Z,7.47
2023-05-09T11:01:39.982Z,7.03
2023-05-09T11:04:11.417Z,8.13
2023-05-09T11:06:48.987Z,10.80
2023-05-09T11:09:38.674Z,8.38
2023-05-09T11:12:06.310Z,8.40
2023-05-09T11:14:34.813Z,8.75
2023-05-09T11:17:10.197Z,7.63
2023-05-09T11:19:46.698Z,8.43
2023-05-09T11:22:27.524Z,7.15
2023-05-09T11:25:04.858Z,8.98
2023-05-09T11:27:52.716Z,8.98
2023-05-09T11:30:21.958Z,7.75
2023-05-09T11:32:58.842Z,7.35
2023-05-09T11:35:27.930Z,7.15
2023-05-09T11:38:07.079Z,6.13
2023-05-09T11:40:35.703Z,6.43
2023-05-09T11:43:03.576Z,7.30
2023-05-09T11:45:33.582Z,6.35
2023-05-09T11:48:02.158Z,6.35
2023-05-09T11:50:30.251Z,7.40
2023-05-09T11:52:58.462Z,7.90
2023-05-09T11:55:29.805Z,6.68
2023-05-09T11:57:57.449Z,6.63
2023-05-09T12:00:26.834Z,7.53
2023-05-09T12:02:54.876Z,7.15
2023-05-09T12:05:24.053Z,7.97
2023-05-09T12:07:52.446Z,6.93
2023-05-09T12:10:22.003Z,7.80
2023-05-09T12:12:51.745Z,7.25
2023-05-09T12:15:21.381Z,7.53
2023-05-09T12:18:01.400Z,7.15
2023-05-09T12:20:28.982Z,6.88
2023-05-09T12:22:56.760Z,7.13
2023-05-09T12:25:24.254Z,6.07
2023-05-09T12:27:54.620Z,6.50
2023-05-09T12:30:22.437Z,6.38
2023-05-09T12:32:50.088Z,5.95
2023-05-09T12:35:17.802Z,6.88
2023-05-09T12:37:57.193Z,6.45
2023-05-09T12:40:25.709Z,6.63
2023-05-09T12:42:57.388Z,6.40
2023-05-09T12:45:25.028Z,6.65
2023-05-09T12:47:54.282Z,5.75
2023-05-09T12:50:22.274Z,6.85
2023-05-09T12:53:02.739Z,7.35
2023-05-09T12:55:31.770Z,5.10
2023-05-09T12:58:04.028Z,6.68
2023-05-09T13:03:42.615Z,5.75
2023-05-09T13:06:14.748Z,5.78
2023-05-09T13:11:16.451Z,5.55
2023-05-09T13:13:44.945Z,5.10
2023-05-09T13:16:14.297Z,5.13
2023-05-09T13:18:44.300Z,4.60
2023-05-09T13:21:11.917Z,5.60
2023-05-09T13:23:39.382Z,5.88
2023-05-09T13:26:06.968Z,4.85
2023-05-09T13:28:34.521Z,4.93
2023-05-09T13:31:02.984Z,3.75
2023-05-09T13:33:30.630Z,4.47
2023-05-09T13:35:58.128Z,3.35
2023-05-09T13:38:25.823Z,3.55
2023-05-09T13:40:53.477Z,3.38
2023-05-09T13:43:22.102Z,3.22
2023-05-09T13:45:49.886Z,4.35
2023-05-09T13:48:17.614Z,4.50
2023-05-09T13:50:45.156Z,4.40
2023-05-09T13:53:12.690Z,3.47
2023-05-09T13:55:40.299Z,3.88
2023-05-09T13:58:07.816Z,3.92
2023-05-09T14:00:35.524Z,4.65
2023-05-09T14:03:03.578Z,4.00
2023-05-09T14:05:34.529Z,3.80
2023-05-09T14:08:02.188Z,4.05
2023-05-09T14:10:29.914Z,4.20
2023-05-09T14:12:57.629Z,4.10
2023-05-09T14:15:25.197Z,3.75
2023-05-09T14:17:52.795Z,3.47
2023-05-09T14:20:20.402Z,3.72
2023-05-09T14:22:48.289Z,4.05
2023-05-09T14:25:15.989Z,4.50
2023-05-09T14:27:43.491Z,4.45
2023-05-09T14:30:11.535Z,3.72
2023-05-09T14:32:39.043Z,3.80
2023-05-09T14:35:07.180Z,4.00
2023-05-09T14:37:35.908Z,4.45
2023-05-09T14:40:05.809Z,2.80
2023-05-09T14:42:33.689Z,3.03
2023-05-09T14:45:01.228Z,3.50
2023-05-09T14:47:28.797Z,3.08
2023-05-09T14:49:56.347Z,3.20
2023-05-09T14:52:23.977Z,3.03
2023-05-09T14:54:51.495Z,2.67
2023-05-09T14:57:19.107Z,2.75
2023-05-09T14:59:46.671Z,3.83
2023-05-09T15:02:14.221Z,3.20
2023-05-09T15:04:43.831Z,3.63
2023-05-09T15:07:11.840Z,4.18
2023-05-09T15:09:39.438Z,4.60
2023-05-09T15:12:07.130Z,3.65
2023-05-09T15:14:34.669Z,3.45
2023-05-09T15:17:04.271Z,3.35
2023-05-09T15:19:32.524Z,2.92
2023-05-09T15:22:00.945Z,3.08
2023-05-09T15:24:28.587Z,3.15
2023-05-09T15:26:56.166Z,3.40
2023-05-09T15:29:23.921Z,3.67
2023-05-09T15:31:51.454Z,3.45
2023-05-09T15:34:18.942Z,3.47
2023-05-09T15:36:46.624Z,2.95
2023-05-09T15:39:14.203Z,2.58
2023-05-09T15:41:42.013Z,2.40
2023-05-09T15:44:09.524Z,2.92
2023-05-09T15:46:37.710Z,3.63
2023-05-09T15:49:05.278Z,2.53
2023-05-09T15:51:32.765Z,3.25
2023-05-09T15:54:00.290Z,3.33
2023-05-09T15:56:27.806Z,5.28
2023-05-09T15:58:55.320Z,4.45
2023-05-09T16:01:22.873Z,4.10
2023-05-09T16:03:50.695Z,5.07
2023-05-09T16:06:18.566Z,5.30
2023-05-09T16:08:46.688Z,5.38
2023-05-09T16:11:14.251Z,4.40
2023-05-09T16:13:41.872Z,4.10
2023-05-09T16:16:09.477Z,5.13
2023-05-09T16:18:37.046Z,5.47
2023-05-09T16:21:05.313Z,5.85
2023-05-09T16:23:32.935Z,5.50
2023-05-09T16:26:00.456Z,6.13
2023-05-09T16:28:29.498Z,4.78
2023-05-09T16:30:57.095Z,5.10
2023-05-09T16:33:24.624Z,6.40
2023-05-09T16:35:52.136Z,6.20
2023-05-09T16:38:19.918Z,5.93
2023-05-09T16:40:47.421Z,5.65
2023-05-09T16:43:16.358Z,6.07
2023-05-09T16:45:44.172Z,6.68
2023-05-09T16:48:11.714Z,6.60
2023-05-09T16:50:43.104Z,7.10
2023-05-09T16:53:11.321Z,6.43
2023-05-09T16:55:39.887Z,7.90
2023-05-09T16:58:07.704Z,6.07
2023-05-09T17:00:35.289Z,6.10
2023-05-09T17:03:03.278Z,5.40
2023-05-09T17:05:30.882Z,6.70
2023-05-09T17:07:58.378Z,6.30
2023-05-09T17:10:26.092Z,5.63
2023-05-09T17:12:53.617Z,5.95
2023-05-09T17:15:21.249Z,5.22
2023-05-09T17:17:48.870Z,4.55
2023-05-09T17:20:16.823Z,5.10
2023-05-09T17:22:44.550Z,5.00
2023-05-09T17:25:12.463Z,4.75
2023-05-09T17:27:41.645Z,4.05
2023-05-09T17:30:10.009Z,3.28
2023-05-09T17:32:37.519Z,4.25
2023-05-09T17:35:05.996Z,4.53
2023-05-09T17:37:33.464Z,4.30
2023-05-09T17:40:01.156Z,5.85
2023-05-09T17:42:28.765Z,3.42
2023-05-09T17:44:56.476Z,4.05
2023-05-09T17:47:24.096Z,3.70
2023-05-09T17:49:52.136Z,3.25
2023-05-09T17:52:19.689Z,4.40
2023-05-09T17:54:47.283Z,3.40
2023-05-09T17:57:14.821Z,3.30
2023-05-09T17:59:42.331Z,3.60
2023-05-09T18:02:09.867Z,3.13
2023-05-09T18:04:37.486Z,2.88
2023-05-09T18:07:05.085Z,2.97
2023-05-09T18:09:32.595Z,3.97
2023-05-09T18:12:00.180Z,3.25
2023-05-09T18:14:28.449Z,4.28
2023-05-09T18:16:56.062Z,4.50
2023-05-09T18:19:23.641Z,6.03
2023-05-09T18:21:51.199Z,5.60
2023-05-09T18:24:20.395Z,6.18
2023-05-09T18:26:49.226Z,7.13
2023-05-09T18:29:17.303Z,6.53
2023-05-09T18:31:44.925Z,9.15
2023-05-09T18:34:12.953Z,10.63
2023-05-09T18:36:40.628Z,8.90
2023-05-09T18:39:08.854Z,8.40
2023-05-09T18:41:36.417Z,5.90
2023-05-09T18:44:04.208Z,5.38
2023-05-09T18:46:33.684Z,5.72
2023-05-09T18:49:03.040Z,4.63
2023-05-09T18:51:31.517Z,2.53
2023-05-09T18:53:59.187Z,2.75
2023-05-09T18:56:26.750Z,2.72
2023-05-09T18:58:54.616Z,2.38
2023-05-09T19:01:24.291Z,2.05
2023-05-09T19:03:54.350Z,2.03
2023-05-09T19:06:24.015Z,1.70
2023-05-09T19:08:52.118Z,2.08
2023-05-09T19:11:19.881Z,1.75
2023-05-09T19:13:49.338Z,1.30
2023-05-09T19:16:19.557Z,1.35
2023-05-09T19:18:47.154Z,1.38
2023-05-09T19:21:15.666Z,2.60
2023-05-09T19:23:44.597Z,1.60
2023-05-09T19:26:12.092Z,1.67
2023-05-09T19:28:39.784Z,1.20
2023-05-09T19:31:07.302Z,1.27
2023-05-09T19:33:34.888Z,1.52
2023-05-09T19:36:02.383Z,2.17
2023-05-09T19:38:29.965Z,1.52
2023-05-09T19:40:59.188Z,1.55
2023-05-09T19:43:26.743Z,1.90
2023-05-09T19:45:54.399Z,1.38
2023-05-09T19:48:22.042Z,1.77
2023-05-09T19:50:49.741Z,1.60
2023-05-09T19:53:17.227Z,1.67
2023-05-09T19:55:46.886Z,2.67
2023-05-09T19:58:17.467Z,2.83
2023-05-09T20:00:45.551Z,3.13
2023-05-09T20:03:13.314Z,3.58
2023-05-09T20:05:42.170Z,3.33
2023-05-09T20:08:09.776Z,4.97
2023-05-09T20:10:37.511Z,6.13
2023-05-09T20:13:05.184Z,6.25
2023-05-09T20:15:32.831Z,6.20
2023-05-09T20:18:03.545Z,7.65
2023-05-09T20:20:32.739Z,8.50
2023-05-09T20:23:00.780Z,8.27
2023-05-09T20:25:28.690Z,9.48
2023-05-09T20:27:56.450Z,9.07
2023-05-09T20:30:24.063Z,8.20
2023-05-09T20:32:52.486Z,8.35
2023-05-09T20:35:20.312Z,8.85
2023-05-09T20:37:47.978Z,9.20
2023-05-09T20:40:15.912Z,7.57
2023-05-09T20:42:43.763Z,8.50
2023-05-09T20:45:11.538Z,7.57
2023-05-09T20:47:39.611Z,7.88
2023-05-09T20:50:08.093Z,8.70
2023-05-09T20:52:35.714Z,8.38
2023-05-09T20:55:03.298Z,9.65
2023-05-09T20:57:30.917Z,8.50
2023-05-09T20:59:58.523Z,8.13
2023-05-09T21:02:26.203Z,10.57
2023-05-09T21:04:53.861Z,8.90
2023-05-09T21:07:21.694Z,9.70
2023-05-09T21:09:50.711Z,11.27
2023-05-09T21:12:18.628Z,11.48
2023-05-09T21:14:46.244Z,11.75
2023-05-09T21:17:13.937Z,11.98
2023-05-09T21:19:41.512Z,11.07
2023-05-09T21:22:09.278Z,13.60
2023-05-09T21:24:36.860Z,14.40
2023-05-09T21:27:04.828Z,13.93
2023-05-09T21:29:32.458Z,13.63
2023-05-09T21:32:00.021Z,13.85
2023-05-09T21:34:27.594Z,15.23
2023-05-09T21:36:55.216Z,14.63
2023-05-09T21:39:22.770Z,15.85
2023-05-09T21:41:50.322Z,16.77
2023-05-09T21:44:17.904Z,18.38
2023-05-09T21:46:46.385Z,17.17
2023-05-09T21:49:16.577Z,19.13
2023-05-09T21:51:44.253Z,18.63
2023-05-09T21:54:11.883Z,19.65
2023-05-09T21:56:39.734Z,20.40
2023-05-09T21:59:07.230Z,20.40
2023-05-09T22:01:34.836Z,23.45
2023-05-09T22:04:02.978Z,21.90
2023-05-09T22:06:31.284Z,22.58
2023-05-09T22:08:58.781Z,20.92
2023-05-09T22:11:26.257Z,23.95
2023-05-09T22:13:53.745Z,26.23
2023-05-09T22:16:22.362Z,24.42
2023-05-09T22:18:49.987Z,23.55
2023-05-09T22:21:17.485Z,23.13
2023-05-09T22:23:44.980Z,23.25
2023-05-09T22:26:12.543Z,25.00
2023-05-09T22:28:40.066Z,21.83
2023-05-09T22:31:08.327Z,25.30
2023-05-09T22:33:35.880Z,26.95
2023-05-09T22:36:03.428Z,24.85
2023-05-09T22:38:31.080Z,24.92
2023-05-09T22:40:58.580Z,23.77
2023-05-09T22:43:28.875Z,26.83
2023-05-09T22:46:04.308Z,26.05
2023-05-09T22:48:31.799Z,27.17
2023-05-09T22:50:59.272Z,27.95
2023-05-09T22:53:26.799Z,28.27
2023-05-09T22:55:54.751Z,29.63
2023-05-09T22:58:22.559Z,30.95
2023-05-09T23:00:50.169Z,26.75
2023-05-09T23:03:17.842Z,31.20
2023-05-09T23:05:45.435Z,29.58
2023-05-09T23:08:12.907Z,27.20
2023-05-09T23:10:40.419Z,29.88
2023-05-09T23:13:08.075Z,29.90
2023-05-09T23:15:36.333Z,30.08
2023-05-09T23:18:04.071Z,30.88
2023-05-09T23:20:31.532Z,34.13
2023-05-09T23:22:59.047Z,31.75
2023-05-09T23:25:26.982Z,30.65
2023-05-09T23:27:54.624Z,32.33
2023-05-09T23:30:22.177Z,32.85
2023-05-09T23:32:49.758Z,34.10
2023-05-09T23:35:17.632Z,34.53
2023-05-09T23:37:45.158Z,33.67
2023-05-09T23:40:13.570Z,31.27
2023-05-09T23:42:41.248Z,34.28
2023-05-09T23:45:09.463Z,33.20
2023-05-09T23:47:37.241Z,34.45
2023-05-09T23:50:05.009Z,35.08
2023-05-09T23:52:32.632Z,33.53
2023-05-09T23:55:00.174Z,36.05
2023-05-09T23:57:27.741Z,36.47
2023-05-09T23:59:55.224Z,35.92
